createdAt,value
2023-05-02T00:00:00.639Z,95.80
2023-05-02T00:02:29.344Z,95.80
2023-05-02T00:04:56.930Z,95.80
2023-05-02T00:07:28.189Z,96.00
2023-05-02T00:09:55.269Z,95.80
2023-05-02T00:12:23.771Z,95.80
2023-05-02T00:14:51.732Z,96.10
2023-05-02T00:17:20.746Z,96.10
2023-05-02T00:19:48.350Z,96.30
2023-05-02T00:22:15.535Z,96.20
2023-05-02T00:24:43.061Z,96.30
2023-05-02T00:27:10.815Z,96.30
2023-05-02T00:29:37.824Z,96.30
2023-05-02T00:32:06.754Z,96.30
2023-05-02T00:34:35.460Z,96.40
2023-05-02T00:37:02.683Z,96.50
2023-05-02T00:39:30.194Z,96.60
2023-05-02T00:41:58.202Z,96.80
2023-05-02T00:44:29.129Z,97.00
2023-05-02T00:46:57.359Z,96.90
2023-05-02T00:49:24.909Z,97.00
2023-05-02T00:51:53.747Z,97.00
2023-05-02T00:54:21.314Z,97.20
2023-05-02T00:56:48.478Z,97.20
2023-05-02T00:59:16.398Z,97.20
2023-05-02T01:01:56.188Z,97.70
2023-05-02T01:04:51.920Z,97.70
2023-05-02T01:07:37.513Z,97.60
2023-05-02T01:10:18.377Z,97.70
2023-05-02T01:12:54.578Z,97.60
2023-05-02T01:15:24.081Z,97.50
2023-05-02T01:17:54.335Z,97.50
2023-05-02T01:20:25.948Z,97.40
2023-05-02T01:22:58.617Z,97.50
2023-05-02T01:25:38.303Z,98.00
2023-05-02T01:31:05.763Z,98.20
2023-05-02T01:33:36.345Z,98.40
2023-05-02T01:38:51.463Z,98.30
2023-05-02T01:41:19.711Z,98.60
2023-05-02T01:43:48.862Z,98.70
2023-05-02T01:46:19.068Z,98.70
2023-05-02T01:48:49.918Z,98.70
2023-05-02T01:51:19.868Z,98.50
2023-05-02T01:53:49.737Z,98.40
2023-05-02T01:56:20.155Z,98.40
2023-05-02T01:58:53.706Z,98.50
2023-05-02T02:01:24.984Z,98.70
2023-05-02T02:03:54.029Z,98.80
2023-05-02T02:06:22.482Z,98.90
2023-05-02T02:08:50.144Z,99.10
2023-05-02T02:11:37.256Z,99.10
2023-05-02T02:14:08.486Z,99.10
2023-05-02T02:16:43.181Z,99.40
2023-05-02T02:19:13.695Z,99.80
2023-05-02T02:21:43.385Z,99.90
2023-05-02T02:24:12.297Z,99.90
2023-05-02T02:26:39.501Z,99.90
2023-05-02T02:29:07.250Z,99.90
2023-05-02T02:31:35.938Z,99.90
2023-05-02T02:34:08.458Z,99.90
2023-05-02T02:36:48.645Z,99.90
2023-05-02T02:39:26.625Z,99.90
2023-05-02T02:42:06.605Z,99.90
2023-05-02T02:44:46.503Z,99.90
2023-05-02T02:47:24.288Z,99.90
2023-05-02T02:50:17.466Z,99.90
2023-05-02T02:52:57.346Z,99.90
2023-05-02T02:55:38.903Z,99.90
2023-05-02T02:58:24.598Z,99.90
2023-05-02T03:00:53.623Z,99.90
2023-05-02T03:03:23.298Z,99.90
2023-05-02T03:05:51.940Z,99.90
2023-05-02T03:08:19.541Z,99.90
2023-05-02T03:10:47.074Z,99.90
2023-05-02T03:16:32.019Z,99.90
2023-05-02T03:18:59.838Z,99.90
2023-05-02T03:21:32.402Z,99.90
2023-05-02T03:24:00.916Z,99.90
2023-05-02T03:26:28.460Z,99.90
2023-05-02T03:28:56.670Z,99.90
2023-05-02T03:31:30.181Z,99.90
2023-05-02T03:33:57.171Z,99.90
2023-05-02T03:36:28.864Z,99.90
2023-05-02T03:38:56.229Z,99.90
2023-05-02T03:41:25.235Z,99.90
2023-05-02T03:43:52.221Z,99.90
2023-05-02T03:46:21.178Z,99.90
2023-05-02T03:48:48.716Z,99.90
2023-05-02T03:51:16.307Z,99.90
2023-05-02T03:53:44.692Z,99.90
2023-05-02T03:56:12.496Z,99.90
2023-05-02T03:58:39.578Z,99.90
2023-05-02T04:01:15.557Z,99.90
2023-05-02T04:03:43.060Z,99.90
2023-05-02T04:06:10.942Z,99.90
2023-05-02T04:08:45.428Z,99.90
2023-05-02T04:11:16.081Z,99.90
2023-05-02T04:13:43.005Z,99.90
2023-05-02T04:16:13.474Z,99.90
2023-05-02T04:18:43.729Z,99.90
2023-05-02T04:21:11.270Z,99.90
2023-05-02T04:23:38.317Z,99.90
2023-05-02T04:26:07.137Z,99.90
2023-05-02T04:28:35.452Z,99.90
2023-05-02T04:31:04.053Z,99.90
2023-05-02T04:33:31.637Z,99.90
2023-05-02T04:35:59.246Z,99.90
2023-05-02T04:38:28.014Z,99.90
2023-05-02T04:40:58.361Z,99.90
2023-05-02T04:43:29.286Z,99.90
2023-05-02T04:45:56.945Z,99.90
2023-05-02T04:48:24.060Z,99.90
2023-05-02T04:50:53.508Z,99.90
2023-05-02T04:53:22.933Z,99.90
2023-05-02T04:55:56.538Z,99.90
2023-05-02T04:58:23.576Z,99.90
2023-05-02T05:00:52.014Z,99.90
2023-05-02T05:03:19.590Z,99.90
2023-05-02T05:05:46.794Z,99.90
2023-05-02T05:10:59.917Z,99.90
2023-05-02T05:16:13.446Z,99.90
2023-05-02T05:18:40.777Z,99.90
2023-05-02T05:21:08.624Z,99.90
2023-05-02T05:23:36.012Z,99.90
2023-05-02T05:26:13.754Z,99.90
2023-05-02T05:28:41.329Z,99.90
2023-05-02T05:31:09.959Z,99.90
2023-05-02T05:33:38.676Z,99.90
2023-05-02T05:36:07.608Z,99.90
2023-05-02T05:38:38.582Z,99.90
2023-05-02T05:41:09.106Z,99.90
2023-05-02T05:43:38.405Z,99.90
2023-05-02T05:46:06.360Z,99.90
2023-05-02T05:48:33.366Z,99.90
2023-05-02T05:51:06.091Z,99.90
2023-05-02T05:53:33.949Z,99.90
2023-05-02T05:56:09.889Z,99.90
2023-05-02T05:58:40.776Z,99.90
2023-05-02T06:01:08.696Z,99.90
2023-05-02T06:03:36.697Z,99.90
2023-05-02T06:06:12.820Z,99.90
2023-05-02T06:08:40.394Z,99.90
2023-05-02T06:11:11.374Z,99.90
2023-05-02T06:13:38.986Z,99.90
2023-05-02T06:16:07.659Z,99.90
2023-05-02T06:18:34.790Z,99.90
2023-05-02T06:21:06.893Z,99.90
2023-05-02T06:23:34.834Z,99.90
2023-05-02T06:26:02.841Z,99.90
2023-05-02T06:28:30.651Z,99.90
2023-05-02T06:30:59.266Z,99.90
2023-05-02T06:33:26.352Z,99.90
2023-05-02T06:35:54.029Z,99.90
2023-05-02T06:38:23.516Z,99.90
2023-05-02T06:40:51.819Z,99.90
2023-05-02T06:43:19.761Z,99.90
2023-05-02T06:45:46.925Z,99.90
2023-05-02T06:48:16.046Z,99.90
2023-05-02T06:50:43.235Z,99.90
2023-05-02T06:53:10.759Z,99.90
2023-05-02T06:55:39.279Z,99.90
2023-05-02T06:58:06.765Z,99.90
2023-05-02T07:00:33.796Z,99.90
2023-05-02T07:03:01.684Z,99.90
2023-05-02T07:05:30.965Z,99.90
2023-05-02T07:07:58.010Z,99.90
2023-05-02T07:10:25.402Z,99.90
2023-05-02T07:12:54.414Z,99.90
2023-05-02T07:15:21.419Z,99.90
2023-05-02T07:17:49.475Z,99.90
2023-05-02T07:20:17.254Z,99.90
2023-05-02T07:22:44.539Z,99.90
2023-05-02T07:25:11.728Z,99.90
2023-05-02T07:27:39.146Z,99.90
2023-05-02T07:30:09.695Z,99.90
2023-05-02T07:32:36.775Z,99.90
2023-05-02T07:35:04.244Z,99.90
2023-05-02T07:37:35.299Z,99.90
2023-05-02T07:40:03.468Z,99.90
2023-05-02T07:42:31.505Z,99.90
2023-05-02T07:44:59.642Z,99.90
2023-05-02T07:47:28.364Z,99.90
2023-05-02T07:49:56.623Z,99.90
2023-05-02T07:52:24.184Z,99.90
2023-05-02T07:54:51.981Z,99.90
2023-05-02T07:57:19.221Z,99.90
2023-05-02T07:59:48.650Z,99.90
2023-05-02T08:02:20.908Z,99.90
2023-05-02T08:04:50.350Z,99.90
2023-05-02T08:07:17.377Z,99.90
2023-05-02T08:09:45.100Z,99.90
2023-05-02T08:12:12.325Z,99.90
2023-05-02T08:14:39.410Z,99.90
2023-05-02T08:17:07.102Z,99.90
2023-05-02T08:19:34.245Z,99.90
2023-05-02T08:22:02.804Z,99.90
2023-05-02T08:24:31.708Z,99.90
2023-05-02T08:26:59.847Z,99.90
2023-05-02T08:29:28.094Z,99.90
2023-05-02T08:31:56.858Z,99.90
2023-05-02T08:34:25.286Z,99.90
2023-05-02T08:36:58.349Z,99.90
2023-05-02T08:39:27.890Z,99.90
2023-05-02T08:41:55.947Z,99.90
2023-05-02T08:44:23.710Z,99.90
2023-05-02T08:46:52.496Z,99.90
2023-05-02T08:49:21.905Z,99.90
2023-05-02T08:51:53.246Z,99.90
2023-05-02T08:54:27.632Z,99.90
2023-05-02T08:56:59.500Z,99.90
2023-05-02T08:59:26.890Z,99.90
2023-05-02T09:02:01.312Z,99.60
2023-05-02T09:04:35.371Z,99.90
2023-05-02T09:07:05.610Z,99.90
2023-05-02T09:09:34.894Z,99.90
2023-05-02T09:12:02.731Z,99.90
2023-05-02T09:14:30.203Z,99.90
2023-05-02T09:17:02.441Z,99.90
2023-05-02T09:19:35.124Z,99.90
2023-05-02T09:22:03.276Z,99.90
2023-05-02T09:24:30.370Z,99.70
2023-05-02T09:27:03.390Z,99.40
2023-05-02T09:29:36.030Z,99.20
2023-05-02T09:32:04.069Z,99.10
2023-05-02T09:34:32.030Z,99.10
2023-05-02T09:36:59.211Z,98.70
2023-05-02T09:39:30.952Z,98.90
2023-05-02T09:42:04.009Z,98.70
2023-05-02T09:44:37.975Z,98.70
2023-05-02T09:47:07.110Z,98.40
2023-05-02T09:49:52.044Z,98.10
2023-05-02T09:52:23.675Z,98.10
2023-05-02T09:54:52.932Z,97.90
2023-05-02T09:57:21.899Z,97.60
2023-05-02T09:59:57.981Z,97.20
2023-05-02T10:02:28.614Z,97.20
2023-05-02T10:05:02.152Z,97.30
2023-05-02T10:07:29.899Z,97.20
2023-05-02T10:10:01.102Z,97.10
2023-05-02T10:12:33.863Z,97.00
2023-05-02T10:15:06.233Z,95.80
2023-05-02T10:17:43.819Z,95.70
2023-05-02T10:20:17.417Z,96.00
2023-05-02T10:22:47.863Z,96.00
2023-05-02T10:25:15.860Z,96.30
2023-05-02T10:27:44.554Z,96.40
2023-05-02T10:30:14.862Z,94.90
2023-05-02T10:32:49.986Z,94.80
2023-05-02T10:35:17.640Z,95.40
2023-05-02T10:37:51.709Z,94.90
2023-05-02T10:40:19.214Z,95.10
2023-05-02T10:42:51.873Z,94.40
2023-05-02T10:45:32.992Z,94.50
2023-05-02T10:48:17.875Z,94.10
2023-05-02T10:50:47.454Z,93.90
2023-05-02T10:53:43.740Z,94.20
2023-05-02T10:56:21.636Z,94.10
2023-05-02T10:58:54.246Z,93.70
2023-05-02T11:01:37.672Z,93.60
2023-05-02T11:04:07.380Z,93.80
2023-05-02T11:06:36.350Z,93.80
2023-05-02T11:09:34.141Z,93.80
2023-05-02T11:12:04.841Z,92.90
2023-05-02T11:14:52.197Z,92.60
2023-05-02T11:17:21.009Z,92.90
2023-05-02T11:20:25.042Z,92.60
2023-05-02T11:22:53.661Z,92.80
2023-05-02T11:25:41.716Z,93.10
2023-05-02T11:28:44.166Z,93.10
2023-05-02T11:31:59.550Z,91.70
2023-05-02T11:34:27.558Z,93.10
2023-05-02T11:37:00.594Z,93.80
2023-05-02T11:39:27.709Z,94.30
2023-05-02T11:41:55.023Z,94.80
2023-05-02T11:44:23.224Z,95.00
2023-05-02T11:46:51.999Z,95.00
2023-05-02T11:49:19.113Z,94.80
2023-05-02T11:51:49.641Z,95.10
2023-05-02T11:54:22.986Z,95.30
2023-05-02T11:56:50.231Z,94.50
2023-05-02T11:59:17.948Z,93.70
2023-05-02T12:04:43.497Z,93.60
2023-05-02T12:07:13.487Z,93.20
2023-05-02T12:09:54.114Z,93.20
2023-05-02T12:12:22.501Z,93.70
2023-05-02T12:14:55.570Z,94.10
2023-05-02T12:17:26.089Z,94.70
2023-05-02T12:20:05.197Z,95.00
2023-05-02T12:22:32.632Z,94.30
2023-05-02T12:25:00.690Z,94.50
2023-05-02T12:27:31.172Z,95.10
2023-05-02T12:30:01.991Z,95.00
2023-05-02T12:32:31.236Z,95.70
2023-05-02T12:35:02.261Z,96.00
2023-05-02T12:37:31.822Z,96.40
2023-05-02T12:39:59.568Z,96.80
2023-05-02T12:42:27.351Z,96.80
2023-05-02T12:44:57.471Z,97.10
2023-05-02T12:47:30.293Z,97.20
2023-05-02T12:50:09.395Z,97.00
2023-05-02T12:52:51.321Z,95.90
2023-05-02T12:55:19.298Z,94.90
2023-05-02T12:57:47.138Z,94.70
2023-05-02T13:00:17.573Z,94.30
2023-05-02T13:02:45.139Z,94.20
2023-05-02T13:05:17.527Z,94.60
2023-05-02T13:07:45.364Z,94.90
2023-05-02T13:10:13.739Z,94.90
2023-05-02T13:12:41.876Z,94.50
2023-05-02T13:15:09.961Z,93.80
2023-05-02T13:17:37.369Z,93.80
2023-05-02T13:20:09.746Z,94.10
2023-05-02T13:22:41.024Z,93.50
2023-05-02T13:25:10.085Z,93.70
2023-05-02T13:27:41.582Z,93.90
2023-05-02T13:30:15.325Z,93.60
2023-05-02T13:32:42.508Z,93.50
2023-05-02T13:35:18.351Z,93.30
2023-05-02T13:37:47.237Z,93.20
2023-05-02T13:40:16.579Z,93.30
2023-05-02T13:42:44.004Z,93.00
2023-05-02T13:45:14.967Z,92.00
2023-05-02T13:47:43.039Z,92.10
2023-05-02T13:50:12.262Z,92.50
2023-05-02T13:52:42.867Z,93.00
2023-05-02T13:55:11.523Z,92.90
2023-05-02T13:57:38.947Z,93.00
2023-05-02T14:00:09.750Z,92.90
2023-05-02T14:02:37.360Z,93.00
2023-05-02T14:05:05.589Z,92.90
2023-05-02T14:10:19.145Z,92.70
2023-05-02T14:12:46.866Z,92.60
2023-05-02T14:15:14.556Z,92.20
2023-05-02T14:17:41.633Z,91.80
2023-05-02T14:20:10.546Z,91.80
2023-05-02T14:22:38.444Z,90.70
2023-05-02T14:25:09.792Z,91.40
2023-05-02T14:27:38.692Z,91.50
2023-05-02T14:30:08.351Z,91.60
2023-05-02T14:32:35.830Z,91.60
2023-05-02T14:35:03.101Z,91.30
2023-05-02T14:37:30.259Z,91.50
2023-05-02T14:39:59.579Z,92.00
2023-05-02T14:42:26.879Z,91.60
2023-05-02T14:44:57.500Z,91.70
2023-05-02T14:47:30.624Z,91.50
2023-05-02T14:49:58.465Z,91.60
2023-05-02T14:52:25.658Z,91.80
2023-05-02T14:54:53.161Z,91.90
2023-05-02T14:57:20.676Z,92.10
2023-05-02T14:59:47.918Z,92.00
2023-05-02T15:02:16.449Z,92.10
2023-05-02T15:04:43.797Z,91.80
2023-05-02T15:07:11.103Z,92.10
2023-05-02T15:09:38.233Z,91.90
2023-05-02T15:12:06.038Z,91.70
2023-05-02T15:14:33.902Z,91.70
2023-05-02T15:17:01.107Z,90.80
2023-05-02T15:19:29.777Z,90.70
2023-05-02T15:21:59.550Z,90.30
2023-05-02T15:24:27.720Z,90.10
2023-05-02T15:26:55.801Z,90.00
2023-05-02T15:29:23.390Z,90.30
2023-05-02T15:31:50.534Z,90.30
2023-05-02T15:34:17.613Z,90.20
2023-05-02T15:36:46.659Z,90.30
2023-05-02T15:39:13.650Z,90.40
2023-05-02T15:41:42.285Z,90.10
2023-05-02T15:44:09.351Z,90.00
2023-05-02T15:46:36.435Z,90.00
2023-05-02T15:49:06.094Z,90.00
2023-05-02T15:51:33.650Z,89.90
2023-05-02T15:54:03.227Z,90.00
2023-05-02T15:56:32.296Z,90.20
2023-05-02T15:58:59.816Z,90.10
2023-05-02T16:01:26.904Z,90.10
2023-05-02T16:03:57.372Z,90.40
2023-05-02T16:06:27.958Z,90.10
2023-05-02T16:08:56.106Z,90.30
2023-05-02T16:11:26.487Z,90.50
2023-05-02T16:13:53.669Z,90.40
2023-05-02T16:16:20.792Z,90.60
2023-05-02T16:18:48.151Z,90.60
2023-05-02T16:21:15.527Z,90.50
2023-05-02T16:23:50.162Z,90.70
2023-05-02T16:26:17.689Z,90.80
2023-05-02T16:28:46.587Z,90.80
2023-05-02T16:31:16.602Z,90.40
2023-05-02T16:33:44.520Z,90.10
2023-05-02T16:36:11.822Z,90.20
2023-05-02T16:38:38.871Z,90.10
2023-05-02T16:41:13.567Z,90.20
2023-05-02T16:43:40.672Z,90.10
2023-05-02T16:46:12.800Z,90.60
2023-05-02T16:48:43.083Z,89.70
2023-05-02T16:51:10.656Z,89.80
2023-05-02T16:53:40.947Z,89.80
2023-05-02T16:56:08.834Z,89.90
2023-05-02T16:58:35.963Z,89.20
2023-05-02T17:01:06.433Z,89.10
2023-05-02T17:03:34.847Z,88.40
2023-05-02T17:06:02.508Z,88.50
2023-05-02T17:08:30.385Z,88.60
2023-05-02T17:10:57.447Z,88.70
2023-05-02T17:13:24.763Z,88.40
2023-05-02T17:15:53.577Z,88.30
2023-05-02T17:18:22.132Z,88.70
2023-05-02T17:20:50.851Z,88.60
2023-05-02T17:23:18.330Z,88.70
2023-05-02T17:25:46.743Z,88.90
2023-05-02T17:28:13.911Z,89.50
2023-05-02T17:30:42.338Z,89.70
2023-05-02T17:33:12.636Z,89.70
2023-05-02T17:35:40.596Z,89.80
2023-05-02T17:38:09.530Z,89.70
2023-05-02T17:40:38.229Z,89.50
2023-05-02T17:43:05.651Z,89.30
2023-05-02T17:45:33.232Z,88.90
2023-05-02T17:50:47.430Z,89.30
2023-05-02T17:53:16.456Z,88.60
2023-05-02T17:55:43.803Z,88.60
2023-05-02T17:58:11.330Z,89.00
2023-05-02T18:00:39.079Z,88.80
2023-05-02T18:03:08.214Z,89.10
2023-05-02T18:05:38.904Z,89.10
2023-05-02T18:08:07.765Z,89.20
2023-05-02T18:10:38.432Z,89.60
2023-05-02T18:13:06.864Z,89.70
2023-05-02T18:15:34.036Z,89.90
2023-05-02T18:18:01.658Z,89.60
2023-05-02T18:20:29.965Z,89.60
2023-05-02T18:22:59.156Z,89.40
2023-05-02T18:25:26.396Z,89.60
2023-05-02T18:27:54.983Z,90.00
2023-05-02T18:30:21.978Z,88.50
2023-05-02T18:32:49.562Z,88.60
2023-05-02T18:35:16.902Z,89.00
2023-05-02T18:40:32.860Z,89.00
2023-05-02T18:43:01.301Z,88.70
2023-05-02T18:45:28.751Z,88.80
2023-05-02T18:47:56.780Z,89.10
2023-05-02T18:50:26.751Z,89.10
2023-05-02T18:52:54.037Z,89.40
2023-05-02T18:55:24.899Z,89.50
2023-05-02T18:57:52.964Z,89.90
2023-05-02T19:00:22.954Z,90.00
2023-05-02T19:02:54.504Z,90.10
2023-05-02T19:05:21.854Z,90.30
2023-05-02T19:07:49.860Z,90.30
2023-05-02T19:10:17.077Z,90.40
2023-05-02T19:12:44.058Z,90.50
2023-05-02T19:15:11.758Z,90.60
2023-05-02T19:17:40.332Z,90.70
2023-05-02T19:20:10.673Z,90.80
2023-05-02T19:22:38.585Z,90.80
2023-05-02T19:25:10.072Z,90.70
2023-05-02T19:27:37.793Z,90.80
2023-05-02T19:30:09.114Z,90.90
2023-05-02T19:32:38.610Z,90.80
2023-05-02T19:35:09.912Z,90.90
2023-05-02T19:37:37.074Z,90.80
2023-05-02T19:42:50.272Z,90.80
2023-05-02T19:45:17.987Z,90.90
2023-05-02T19:47:45.794Z,91.10
2023-05-02T19:50:14.351Z,90.20
2023-05-02T19:52:41.644Z,90.30
2023-05-02T19:55:09.815Z,90.30
2023-05-02T19:57:38.158Z,90.40
2023-05-02T20:00:07.276Z,90.40
2023-05-02T20:02:34.509Z,90.30
2023-05-02T20:05:02.263Z,90.10
2023-05-02T20:07:30.666Z,90.00
2023-05-02T20:09:57.817Z,90.00
2023-05-02T20:12:24.990Z,90.10
2023-05-02T20:14:51.982Z,89.70
2023-05-02T20:17:19.673Z,90.10
2023-05-02T20:19:46.719Z,90.00
2023-05-02T20:22:13.757Z,90.30
2023-05-02T20:24:42.144Z,90.10
2023-05-02T20:27:09.782Z,90.20
2023-05-02T20:29:36.815Z,89.70
2023-05-02T20:32:05.079Z,89.60
2023-05-02T20:34:35.564Z,89.60
2023-05-02T20:37:06.804Z,89.80
2023-05-02T20:39:34.217Z,89.90
2023-05-02T20:42:04.145Z,90.10
2023-05-02T20:44:33.885Z,90.10
2023-05-02T20:47:01.260Z,90.10
2023-05-02T20:49:31.608Z,90.10
2023-05-02T20:51:58.796Z,90.10
2023-05-02T20:54:25.913Z,90.00
2023-05-02T20:56:53.040Z,90.00
2023-05-02T20:59:21.569Z,90.10
2023-05-02T21:01:49.194Z,90.20
2023-05-02T21:04:16.351Z,90.20
2023-05-02T21:06:43.310Z,90.20
2023-05-02T21:09:10.387Z,90.50
2023-05-02T21:11:37.489Z,90.20
2023-05-02T21:14:04.578Z,90.30
2023-05-02T21:16:33.392Z,90.30
2023-05-02T21:19:00.882Z,90.30
2023-05-02T21:21:28.381Z,90.40
2023-05-02T21:23:59.093Z,90.50
2023-05-02T21:26:36.578Z,90.60
2023-05-02T21:29:03.744Z,90.40
2023-05-02T21:31:34.511Z,91.10
2023-05-02T21:34:01.535Z,91.10
2023-05-02T21:36:29.084Z,90.90
2023-05-02T21:38:58.804Z,90.90
2023-05-02T21:41:25.886Z,90.90
2023-05-02T21:43:54.210Z,90.60
2023-05-02T21:46:24.059Z,90.80
2023-05-02T21:48:52.866Z,90.80
2023-05-02T21:51:19.957Z,91.20
2023-05-02T21:53:47.498Z,91.10
2023-05-02T21:56:14.454Z,91.10
2023-05-02T21:58:45.240Z,91.30
2023-05-02T22:01:12.237Z,91.10
2023-05-02T22:03:39.679Z,91.20
2023-05-02T22:06:13.518Z,91.40
2023-05-02T22:08:44.432Z,91.30
2023-05-02T22:11:11.602Z,92.00
2023-05-02T22:13:42.127Z,92.00
2023-05-02T22:16:09.786Z,92.50
2023-05-02T22:18:37.779Z,93.00
2023-05-02T22:21:05.261Z,93.00
2023-05-02T22:23:39.790Z,93.40
2023-05-02T22:26:07.223Z,93.60
2023-05-02T22:28:34.247Z,94.10
2023-05-02T22:31:05.681Z,94.30
2023-05-02T22:33:35.264Z,94.40
2023-05-02T22:36:02.366Z,94.40
2023-05-02T22:38:29.892Z,94.90
2023-05-02T22:40:58.201Z,94.70
2023-05-02T22:43:25.702Z,94.60
2023-05-02T22:45:53.313Z,94.50
2023-05-02T22:48:20.354Z,94.80
2023-05-02T22:50:51.086Z,94.80
2023-05-02T22:53:25.084Z,94.70
2023-05-02T22:55:53.971Z,94.90
2023-05-02T22:58:22.281Z,95.10
2023-05-02T23:00:56.426Z,94.90
2023-05-02T23:03:27.696Z,95.20
2023-05-02T23:05:55.235Z,95.00
2023-05-02T23:08:22.296Z,95.30
2023-05-02T23:10:49.768Z,95.60
2023-05-02T23:13:17.204Z,95.80
2023-05-02T23:15:45.936Z,96.00
2023-05-02T23:18:19.354Z,96.10
2023-05-02T23:20:46.345Z,95.60
2023-05-02T23:23:13.909Z,95.60
2023-05-02T23:25:41.372Z,95.40
2023-05-02T23:28:08.444Z,95.80
2023-05-02T23:30:38.913Z,95.90
2023-05-02T23:33:07.513Z,96.10
2023-05-02T23:35:47.459Z,96.20
2023-05-02T23:38:15.846Z,96.30
2023-05-02T23:40:46.600Z,96.40
2023-05-02T23:43:13.972Z,96.20
2023-05-02T23:45:46.345Z,96.30
2023-05-02T23:48:17.079Z,95.80
2023-05-02T23:50:44.105Z,96.00
2023-05-02T23:53:11.706Z,95.90
2023-05-02T23:55:38.813Z,95.40
2023-05-02T23:58:06.623Z,95.10
